createdAt,value
2018-12-23T00:01:41.736Z,7.90
2018-12-23T00:08:04.153Z,7.90
2018-12-23T00:09:42.153Z,7.90
2018-12-23T00:13:07.041Z,7.90
2018-12-23T00:14:42.190Z,7.90
2018-12-23T00:16:18.031Z,7.90
2018-12-23T00:17:53.177Z,7.90
2018-12-23T00:19:28.172Z,7.90
2018-12-23T00:21:06.531Z,7.80
2018-12-23T00:22:44.715Z,7.80
2018-12-23T00:24:30.511Z,7.80
2018-12-23T00:26:05.475Z,7.90
2018-12-23T00:27:45.772Z,7.80
2018-12-23T00:29:20.814Z,7.90
2018-12-23T00:30:56.815Z,7.90
2018-12-23T00:32:35.513Z,7.90
2018-12-23T00:34:17.756Z,8.00
2018-12-23T00:35:54.551Z,8.00
2018-12-23T00:37:29.525Z,7.90
2018-12-23T00:39:10.004Z,7.90
2018-12-23T00:40:44.935Z,7.90
2018-12-23T00:42:19.943Z,7.90
2018-12-23T00:43:54.913Z,7.90
2018-12-23T00:45:35.398Z,7.90
2018-12-23T00:47:14.745Z,7.90
2018-12-23T00:48:49.756Z,7.90
2018-12-23T00:50:24.746Z,7.90
2018-12-23T00:51:59.709Z,7.90
2018-12-23T00:53:34.711Z,8.00
2018-12-23T00:55:09.903Z,7.90
2018-12-23T00:56:44.805Z,7.90
2018-12-23T00:58:19.771Z,7.90
2018-12-23T00:59:56.726Z,7.90
2018-12-23T01:01:33.838Z,7.90
2018-12-23T01:03:10.993Z,7.90
2018-12-23T01:04:46.191Z,7.90
2018-12-23T01:06:21.143Z,7.90
2018-12-23T01:07:56.214Z,7.90
2018-12-23T01:09:31.220Z,7.90
2018-12-23T01:11:12.349Z,7.90
2018-12-23T01:12:47.657Z,8.00
2018-12-23T01:14:22.675Z,8.00
2018-12-23T01:15:57.614Z,8.00
2018-12-23T01:17:32.558Z,7.90
2018-12-23T01:19:07.582Z,7.90
2018-12-23T01:20:42.624Z,7.90
2018-12-23T01:22:17.587Z,7.90
2018-12-23T01:23:52.520Z,7.90
2018-12-23T01:25:27.458Z,7.90
2018-12-23T01:27:02.493Z,8.00
2018-12-23T01:28:37.452Z,7.90
2018-12-23T01:30:12.430Z,7.90
2018-12-23T01:31:47.356Z,7.90
2018-12-23T01:33:22.363Z,7.90
2018-12-23T01:34:57.323Z,7.90
2018-12-23T01:36:32.259Z,7.90
2018-12-23T01:38:07.207Z,7.80
2018-12-23T01:39:42.196Z,7.80
2018-12-23T01:41:17.140Z,7.80
2018-12-23T01:42:52.112Z,7.80
2018-12-23T01:44:27.052Z,7.80
2018-12-23T01:46:02.064Z,7.80
2018-12-23T01:47:37.016Z,7.80
2018-12-23T01:49:11.935Z,7.80
2018-12-23T01:50:46.880Z,7.70
2018-12-23T01:52:21.852Z,7.80
2018-12-23T01:53:56.819Z,7.80
2018-12-23T01:55:31.772Z,7.70
2018-12-23T01:57:06.767Z,7.70
2018-12-23T01:58:41.780Z,7.70
2018-12-23T02:00:17.200Z,7.70
2018-12-23T02:01:52.163Z,7.60
2018-12-23T02:03:27.128Z,7.60
2018-12-23T02:05:22.446Z,7.50
2018-12-23T02:07:04.958Z,7.40
2018-12-23T02:08:49.439Z,7.30
2018-12-23T02:10:32.127Z,7.20
2018-12-23T02:12:24.507Z,7.20
2018-12-23T02:14:00.985Z,7.10
2018-12-23T02:15:37.998Z,7.10
2018-12-23T02:17:14.977Z,7.00
2018-12-23T02:18:50.332Z,7.00
2018-12-23T02:20:29.879Z,7.10
2018-12-23T02:22:08.264Z,7.10
2018-12-23T02:23:43.390Z,7.20
2018-12-23T02:25:18.699Z,7.20
2018-12-23T02:26:54.064Z,7.30
2018-12-23T02:28:29.253Z,7.20
2018-12-23T02:30:06.420Z,7.30
2018-12-23T02:31:43.490Z,7.30
2018-12-23T02:33:19.154Z,7.30
2018-12-23T02:34:55.211Z,7.20
2018-12-23T02:36:44.163Z,7.20
2018-12-23T02:38:38.762Z,7.20
2018-12-23T02:40:25.820Z,7.20
2018-12-23T02:42:19.539Z,7.20
2018-12-23T02:44:17.100Z,7.10
2018-12-23T02:46:05.830Z,7.10
2018-12-23T02:48:01.565Z,7.10
2018-12-23T02:49:50.090Z,7.00
2018-12-23T02:51:27.590Z,7.00
2018-12-23T02:53:03.790Z,6.90
2018-12-23T02:54:39.486Z,6.80
2018-12-23T02:56:18.657Z,6.80
2018-12-23T02:58:02.238Z,6.60
2018-12-23T02:59:39.827Z,6.60
2018-12-23T03:01:15.864Z,6.60
2018-12-23T03:02:51.284Z,6.60
2018-12-23T03:04:27.990Z,6.60
2018-12-23T03:06:06.099Z,6.60
2018-12-23T03:07:44.226Z,6.50
2018-12-23T03:09:32.077Z,6.50
2018-12-23T03:11:14.873Z,6.50
2018-12-23T03:12:50.141Z,6.50
2018-12-23T03:14:25.278Z,6.40
2018-12-23T03:16:00.215Z,6.40
2018-12-23T03:17:35.200Z,6.40
2018-12-23T03:19:10.189Z,6.40
2018-12-23T03:20:45.171Z,6.40
2018-12-23T03:22:20.168Z,6.30
2018-12-23T03:23:55.090Z,6.30
2018-12-23T03:25:31.176Z,6.30
2018-12-23T03:27:06.099Z,6.20
2018-12-23T03:28:41.082Z,6.20
2018-12-23T03:30:16.059Z,6.20
2018-12-23T03:31:51.098Z,6.20
2018-12-23T03:33:26.047Z,6.20
2018-12-23T03:35:00.957Z,6.20
2018-12-23T03:36:35.887Z,6.20
2018-12-23T03:38:10.904Z,6.20
2018-12-23T03:39:45.860Z,6.20
2018-12-23T03:41:20.806Z,6.20
2018-12-23T03:42:55.741Z,6.10
2018-12-23T03:44:30.756Z,6.10
2018-12-23T03:46:05.688Z,6.10
2018-12-23T03:47:40.634Z,6.10
2018-12-23T03:49:15.599Z,6.10
2018-12-23T03:50:50.598Z,6.20
2018-12-23T03:52:25.555Z,6.10
2018-12-23T03:54:00.487Z,6.20
2018-12-23T03:55:35.425Z,6.20
2018-12-23T03:57:10.409Z,6.20
